Details for TUI Airlines UK (Thomson) at EGKK




Go Back


Latest METAR
Local Time

EGKK 232350Z 07004KT CAVOK M03/M05 Q1019

24/02/2018, 00:00:31

Description
Results
TUI Airlines UK (Thomson) Logo
Number of Pilots based at EGKK
7 Pilots Based here
Number of TUI Airlines UK (Thomson) Flights Departed from EGKK
3 Flights Departed
Number of TUI Airlines UK (Thomson) Flights Arrived at EGKK
1 Flights Arrived
Number of TUI Airlines UK (Thomson) Schedules Departing from EGKK
80 Schedules
Number of TUI Airlines UK (Thomson) Schedules Arriving at EGKK
85 Schedules
Number of TUI Airlines UK (Thomson) Schedules Departing from EGKK availible today
11 Schedules Today
Number of TUI Airlines UK (Thomson) Schedules Arriving at EGKK availible today
14 Schedules Today
Average Landing Rate at EGKK
-231 fpm
TUI Airlines UK (Thomson) Average Landing Rate at EGKK
-112 fpm
Total Fuel Purchased at EGKK by TUI Airlines UK (Thomson)
15,174.93 kgs / 33,454.65 lbs

Pilots Based at EGKK


Pilot ID
Pilot Name
Pilot Rank
No. of Flights
No. of Flying Hours
Dan Symons
107
380.28
George Jones
35
95.53
Maurice Lyon
41
233.42
Matthew Smith
93
700.29
Pete Desjardins
1
1.59
William Shaw
180
430.37
Clive Kent
0
0
Content